createdAt,value
2018-01-26T00:01:32.701Z,11.93
2018-01-26T00:04:00.212Z,11.83
2018-01-26T00:06:27.746Z,13.80
2018-01-26T00:08:55.238Z,9.47
2018-01-26T00:11:22.759Z,14.80
2018-01-26T00:13:50.268Z,11.93
2018-01-26T00:16:17.796Z,15.33
2018-01-26T00:18:45.298Z,13.23
2018-01-26T00:21:12.866Z,14.90
2018-01-26T00:23:40.369Z,17.17
2018-01-26T00:26:07.876Z,15.57
2018-01-26T00:28:35.385Z,11.73
2018-01-26T00:31:02.893Z,16.57
2018-01-26T00:33:30.489Z,12.90
2018-01-26T00:35:58.066Z,17.20
2018-01-26T00:38:25.620Z,17.27
2018-01-26T00:40:53.107Z,12.73
2018-01-26T00:43:20.645Z,14.90
2018-01-26T00:45:48.182Z,15.03
2018-01-26T00:48:15.674Z,16.40
2018-01-26T00:50:43.177Z,13.97
2018-01-26T00:53:10.693Z,14.73
2018-01-26T00:55:38.196Z,13.43
2018-01-26T00:58:05.779Z,15.27
2018-01-26T01:00:34.214Z,17.50
2018-01-26T01:03:01.750Z,15.67
2018-01-26T01:05:29.277Z,15.30
2018-01-26T01:07:56.757Z,18.50
2018-01-26T01:10:24.368Z,17.03
2018-01-26T01:12:51.879Z,13.23
2018-01-26T01:15:19.403Z,11.53
2018-01-26T01:17:46.947Z,15.13
2018-01-26T01:20:14.507Z,13.97
2018-01-26T01:22:42.060Z,16.60
2018-01-26T01:25:09.534Z,15.23
2018-01-26T01:27:37.069Z,17.77
2018-01-26T01:30:04.651Z,19.33
2018-01-26T01:32:32.174Z,14.93
2018-01-26T01:34:59.717Z,14.03
2018-01-26T01:37:27.241Z,9.83
2018-01-26T01:39:54.713Z,13.30
2018-01-26T01:42:22.269Z,12.47
2018-01-26T01:44:49.794Z,12.17
2018-01-26T01:47:17.289Z,18.10
2018-01-26T01:49:44.763Z,18.50
2018-01-26T01:52:12.276Z,12.17
2018-01-26T01:54:39.832Z,15.13
2018-01-26T01:57:07.334Z,15.27
2018-01-26T01:59:34.837Z,17.63
2018-01-26T02:02:02.372Z,15.67
2018-01-26T02:04:29.924Z,14.63
2018-01-26T02:06:57.529Z,15.17
2018-01-26T02:09:25.019Z,16.93
2018-01-26T02:11:52.589Z,16.83
2018-01-26T02:14:20.092Z,18.63
2018-01-26T02:16:47.597Z,19.87
2018-01-26T02:19:15.185Z,18.90
2018-01-26T02:21:42.712Z,18.67
2018-01-26T02:24:10.246Z,20.03
2018-01-26T02:26:37.742Z,15.53
2018-01-26T02:29:05.239Z,14.67
2018-01-26T02:31:32.834Z,16.90
2018-01-26T02:34:00.356Z,17.30
2018-01-26T02:36:27.927Z,21.47
2018-01-26T02:38:55.449Z,20.17
2018-01-26T02:41:22.983Z,22.33
2018-01-26T02:43:50.498Z,26.83
2018-01-26T02:46:18.012Z,21.83
2018-01-26T02:48:45.540Z,23.47
2018-01-26T02:51:13.038Z,28.63
2018-01-26T02:53:40.564Z,23.53
2018-01-26T02:56:08.157Z,21.83
2018-01-26T02:58:35.655Z,23.23
2018-01-26T03:01:03.180Z,21.63
2018-01-26T03:03:30.694Z,19.10
2018-01-26T03:05:58.198Z,22.73
2018-01-26T03:08:25.732Z,18.97
2018-01-26T03:10:53.250Z,22.33
2018-01-26T03:13:20.848Z,22.13
2018-01-26T03:15:48.351Z,17.93
2018-01-26T03:18:16.722Z,21.03
2018-01-26T03:20:44.256Z,17.63
2018-01-26T03:23:11.791Z,23.87
2018-01-26T03:25:39.353Z,19.73
2018-01-26T03:28:06.879Z,27.67
2018-01-26T03:30:34.466Z,23.23
2018-01-26T03:33:02.024Z,21.10
2018-01-26T03:35:29.584Z,21.10
2018-01-26T03:37:57.097Z,24.27
2018-01-26T03:40:24.612Z,21.30
2018-01-26T03:42:52.213Z,21.07
2018-01-26T03:45:19.786Z,22.27
2018-01-26T03:47:47.332Z,16.97
2018-01-26T03:50:14.826Z,19.83
2018-01-26T03:52:42.389Z,22.03
2018-01-26T03:55:09.921Z,18.60
2018-01-26T03:57:37.531Z,22.00
2018-01-26T04:00:05.148Z,21.87
2018-01-26T04:02:32.647Z,23.87
2018-01-26T04:05:00.145Z,26.27
2018-01-26T04:07:27.636Z,24.97
2018-01-26T04:09:55.160Z,25.87
2018-01-26T04:12:22.653Z,20.27
2018-01-26T04:14:50.150Z,23.00
2018-01-26T04:17:17.748Z,20.20
2018-01-26T04:19:45.267Z,23.67
2018-01-26T04:22:12.846Z,20.63
2018-01-26T04:24:40.353Z,23.93
2018-01-26T04:27:07.885Z,24.30
2018-01-26T04:29:35.407Z,19.20
2018-01-26T04:32:02.942Z,24.93
2018-01-26T04:34:30.453Z,25.70
2018-01-26T04:36:57.989Z,33.80
2018-01-26T04:39:25.576Z,21.60
2018-01-26T04:41:53.074Z,26.07
2018-01-26T04:44:20.609Z,27.30
2018-01-26T04:46:48.366Z,26.63
2018-01-26T04:49:15.885Z,23.17
2018-01-26T04:51:43.396Z,23.03
2018-01-26T04:54:10.974Z,27.47
2018-01-26T04:56:38.509Z,22.93
2018-01-26T04:59:08.106Z,25.53
2018-01-26T05:01:35.667Z,29.57
2018-01-26T05:04:03.209Z,26.97
2018-01-26T05:06:30.767Z,24.03
2018-01-26T05:08:58.285Z,28.67
2018-01-26T05:11:25.911Z,26.97
2018-01-26T05:13:53.388Z,23.67
2018-01-26T05:16:20.927Z,27.83
2018-01-26T05:18:48.548Z,24.07
2018-01-26T05:21:16.057Z,23.43
2018-01-26T05:23:43.562Z,27.73
2018-01-26T05:26:11.096Z,24.03
2018-01-26T05:28:38.593Z,29.33
2018-01-26T05:31:06.097Z,24.63
2018-01-26T05:33:33.604Z,24.10
2018-01-26T05:36:01.093Z,25.27
2018-01-26T05:38:28.589Z,26.27
2018-01-26T05:40:56.131Z,22.50
2018-01-26T05:43:23.643Z,23.33
2018-01-26T05:45:51.154Z,20.73
2018-01-26T05:48:18.683Z,20.23
2018-01-26T05:50:46.202Z,20.30
2018-01-26T05:53:13.876Z,17.10
2018-01-26T05:55:41.378Z,16.23
2018-01-26T05:58:08.870Z,19.83
2018-01-26T06:00:36.379Z,22.67
2018-01-26T06:03:03.875Z,20.00
2018-01-26T06:05:31.362Z,16.23
2018-01-26T06:07:58.884Z,17.53
2018-01-26T06:10:26.401Z,13.80
2018-01-26T06:12:53.907Z,15.90
2018-01-26T06:15:21.410Z,14.67
2018-01-26T06:17:48.912Z,16.50
2018-01-26T06:20:16.426Z,15.57
2018-01-26T06:22:43.947Z,15.47
2018-01-26T06:25:11.441Z,20.87
2018-01-26T06:27:39.027Z,13.20
2018-01-26T06:30:06.543Z,14.80
2018-01-26T06:32:34.079Z,21.17
2018-01-26T06:35:02.058Z,18.80
2018-01-26T06:37:29.597Z,20.73
2018-01-26T06:39:57.110Z,21.80
2018-01-26T06:42:24.646Z,21.83
2018-01-26T06:44:52.169Z,21.03
2018-01-26T06:47:19.664Z,21.53
2018-01-26T06:49:47.193Z,17.70
2018-01-26T06:52:14.708Z,17.80
2018-01-26T06:54:42.228Z,23.40
2018-01-26T06:57:09.765Z,24.00
2018-01-26T06:59:37.258Z,23.10
2018-01-26T07:02:04.782Z,23.23
2018-01-26T07:04:32.292Z,25.57
2018-01-26T07:06:59.821Z,20.67
2018-01-26T07:09:27.327Z,21.73
2018-01-26T07:11:54.848Z,22.20
2018-01-26T07:14:22.351Z,24.27
2018-01-26T07:16:49.843Z,23.50
2018-01-26T07:19:17.360Z,22.80
2018-01-26T07:21:44.906Z,25.63
2018-01-26T07:24:12.453Z,30.47
2018-01-26T07:26:39.954Z,24.20
2018-01-26T07:29:07.452Z,23.27
2018-01-26T07:31:35.039Z,22.57
2018-01-26T07:34:02.561Z,28.63
2018-01-26T07:36:30.070Z,22.47
2018-01-26T07:38:57.584Z,27.50
2018-01-26T07:41:25.097Z,21.57
2018-01-26T07:43:52.603Z,28.17
2018-01-26T07:46:20.099Z,22.90
2018-01-26T07:48:47.616Z,29.27
2018-01-26T07:51:15.168Z,28.10
2018-01-26T07:53:42.664Z,26.97
2018-01-26T07:56:10.197Z,25.30
2018-01-26T07:58:37.698Z,27.07
2018-01-26T08:01:05.433Z,23.10
2018-01-26T08:03:32.938Z,26.73
2018-01-26T08:06:00.474Z,26.27
2018-01-26T08:08:28.088Z,25.70
2018-01-26T08:10:55.584Z,25.63
2018-01-26T08:13:23.119Z,21.57
2018-01-26T08:15:50.646Z,25.40
2018-01-26T08:18:18.132Z,27.13
2018-01-26T08:20:45.640Z,25.30
2018-01-26T08:23:13.157Z,29.00
2018-01-26T08:25:40.694Z,26.73
2018-01-26T08:28:08.221Z,27.60
2018-01-26T08:30:35.735Z,22.87
2018-01-26T08:33:03.234Z,26.27
2018-01-26T08:35:30.746Z,22.40
2018-01-26T08:37:58.268Z,26.27
2018-01-26T08:40:25.805Z,25.20
2018-01-26T08:42:53.325Z,29.70
2018-01-26T08:45:20.886Z,28.20
2018-01-26T08:47:48.388Z,25.97
2018-01-26T08:50:15.946Z,30.87
2018-01-26T08:52:44.309Z,24.10
2018-01-26T08:58:11.165Z,27.13
2018-01-26T09:00:38.675Z,25.73
2018-01-26T09:03:06.260Z,22.73
2018-01-26T09:05:33.781Z,25.87
2018-01-26T09:08:01.305Z,27.00
2018-01-26T09:10:28.802Z,25.03
2018-01-26T09:12:56.322Z,27.23
2018-01-26T09:15:23.829Z,23.10
2018-01-26T09:17:51.325Z,23.93
2018-01-26T09:20:18.827Z,28.67
2018-01-26T09:22:46.351Z,29.33
2018-01-26T09:25:13.905Z,29.40
2018-01-26T09:27:41.456Z,24.63
2018-01-26T09:30:08.950Z,30.47
2018-01-26T09:32:36.494Z,30.63
2018-01-26T09:35:04.025Z,28.97
2018-01-26T09:37:31.562Z,31.37
2018-01-26T09:39:59.106Z,24.00
2018-01-26T09:42:26.618Z,23.63
2018-01-26T09:44:54.094Z,23.17
2018-01-26T09:47:21.652Z,20.30
2018-01-26T09:49:51.184Z,23.20
2018-01-26T09:52:18.707Z,27.27
2018-01-26T09:54:46.216Z,29.20
2018-01-26T09:57:13.709Z,23.70
2018-01-26T09:59:41.223Z,20.37
2018-01-26T10:02:08.790Z,20.33
2018-01-26T10:04:36.316Z,19.77
2018-01-26T10:07:03.811Z,19.83
2018-01-26T10:09:31.379Z,21.83
2018-01-26T10:12:00.295Z,23.97
2018-01-26T10:14:27.813Z,19.97
2018-01-26T10:16:55.328Z,16.80
2018-01-26T10:19:22.885Z,20.20
2018-01-26T10:21:50.415Z,21.10
2018-01-26T10:24:17.964Z,20.93
2018-01-26T10:26:45.496Z,23.07
2018-01-26T10:29:13.032Z,25.57
2018-01-26T10:31:40.604Z,17.47
2018-01-26T10:34:08.136Z,20.87
2018-01-26T10:36:35.694Z,27.40
2018-01-26T10:39:03.215Z,21.47
2018-01-26T10:41:30.711Z,21.57
2018-01-26T10:43:58.206Z,28.40
2018-01-26T10:46:25.726Z,27.97
2018-01-26T10:48:53.265Z,26.27
2018-01-26T10:51:20.753Z,28.67
2018-01-26T10:53:48.371Z,29.13
2018-01-26T10:56:15.897Z,26.90
2018-01-26T10:58:43.488Z,28.43
2018-01-26T11:01:12.276Z,26.93
2018-01-26T11:03:39.886Z,33.27
2018-01-26T11:06:07.412Z,30.67
2018-01-26T11:08:34.906Z,30.73
2018-01-26T11:11:02.388Z,29.13
2018-01-26T11:13:29.876Z,34.40
2018-01-26T11:15:57.400Z,31.03
2018-01-26T11:18:24.930Z,28.40
2018-01-26T11:20:52.450Z,31.73
2018-01-26T11:23:19.929Z,32.10
2018-01-26T11:25:47.470Z,32.03
2018-01-26T11:28:14.992Z,29.83
2018-01-26T11:30:42.491Z,33.97
2018-01-26T11:33:10.093Z,35.40
2018-01-26T11:35:37.627Z,34.97
2018-01-26T11:38:05.204Z,28.50
2018-01-26T11:40:32.730Z,32.27
2018-01-26T11:43:00.233Z,31.30
2018-01-26T11:45:27.764Z,33.37
2018-01-26T11:47:55.296Z,32.00
2018-01-26T11:50:22.916Z,34.73
2018-01-26T11:52:50.432Z,37.33
2018-01-26T11:55:17.969Z,33.27
2018-01-26T11:57:45.437Z,37.13
2018-01-26T12:00:12.976Z,40.63
2018-01-26T12:02:40.512Z,36.30
2018-01-26T12:05:09.481Z,32.57
2018-01-26T12:07:36.983Z,32.30
2018-01-26T12:10:04.516Z,32.33
2018-01-26T12:12:32.427Z,28.13
2018-01-26T12:15:00.100Z,33.37
2018-01-26T12:17:27.712Z,32.10
2018-01-26T12:19:55.407Z,29.97
2018-01-26T12:22:22.960Z,32.57
2018-01-26T12:24:50.504Z,32.17
2018-01-26T12:27:17.992Z,29.83
2018-01-26T12:29:46.053Z,29.37
2018-01-26T12:32:13.529Z,27.47
2018-01-26T12:34:41.090Z,36.83
2018-01-26T12:37:08.626Z,24.97
2018-01-26T12:39:36.151Z,27.00
2018-01-26T12:42:03.657Z,27.77
2018-01-26T12:44:31.195Z,26.77
2018-01-26T12:46:58.700Z,24.83
2018-01-26T12:49:26.235Z,26.63
2018-01-26T12:51:53.725Z,25.90
2018-01-26T12:54:21.270Z,27.87
2018-01-26T12:56:48.813Z,24.07
2018-01-26T12:59:16.349Z,31.60
2018-01-26T13:01:43.933Z,25.30
2018-01-26T13:04:11.472Z,26.47
2018-01-26T13:06:39.029Z,30.23
2018-01-26T13:09:06.688Z,30.33
2018-01-26T13:11:34.217Z,29.20
2018-01-26T13:14:01.737Z,31.53
2018-01-26T13:16:29.279Z,24.90
2018-01-26T13:18:56.774Z,30.73
2018-01-26T13:21:24.306Z,27.63
2018-01-26T13:23:53.030Z,29.03
2018-01-26T13:26:20.598Z,31.77
2018-01-26T13:28:48.088Z,30.57
2018-01-26T13:31:15.638Z,41.83
2018-01-26T13:33:43.125Z,34.47
2018-01-26T13:36:10.656Z,32.60
2018-01-26T13:38:38.149Z,28.30
2018-01-26T13:41:05.690Z,30.77
2018-01-26T13:43:33.188Z,24.90
2018-01-26T13:46:00.667Z,29.20
2018-01-26T13:48:28.166Z,32.97
2018-01-26T13:50:55.665Z,30.37
2018-01-26T13:53:23.169Z,32.20
2018-01-26T13:55:50.639Z,34.00
2018-01-26T13:58:18.109Z,29.47
2018-01-26T14:00:45.604Z,33.13
2018-01-26T14:03:13.114Z,29.40
2018-01-26T14:05:40.649Z,36.20
2018-01-26T14:11:06.069Z,36.83
2018-01-26T14:13:34.529Z,39.50
2018-01-26T14:16:02.485Z,31.10
2018-01-26T14:18:30.010Z,34.90
2018-01-26T14:20:57.468Z,36.00
2018-01-26T14:23:24.955Z,37.73
2018-01-26T14:25:52.482Z,39.97
2018-01-26T14:28:20.004Z,37.13
2018-01-26T14:30:47.504Z,38.67
2018-01-26T14:33:15.006Z,34.77
2018-01-26T14:35:42.513Z,45.77
2018-01-26T14:38:10.017Z,39.73
2018-01-26T14:40:37.545Z,43.27
2018-01-26T14:43:05.065Z,35.83
2018-01-26T14:45:32.576Z,44.33
2018-01-26T14:48:00.170Z,38.73
2018-01-26T14:50:27.689Z,34.70
2018-01-26T14:52:55.206Z,41.87
2018-01-26T14:55:22.738Z,44.57
2018-01-26T14:57:50.223Z,53.30
2018-01-26T15:00:17.715Z,46.77
2018-01-26T15:02:45.205Z,65.03
2018-01-26T15:05:12.728Z,48.77
2018-01-26T15:07:40.215Z,53.17
2018-01-26T15:10:07.733Z,54.27
2018-01-26T15:12:35.198Z,58.60
2018-01-26T15:15:02.692Z,63.53
2018-01-26T15:17:32.680Z,64.07
2018-01-26T15:20:05.523Z,54.70
2018-01-26T15:22:33.006Z,50.73
2018-01-26T15:25:01.049Z,58.57
2018-01-26T15:27:31.022Z,52.67
2018-01-26T15:29:59.322Z,54.60
2018-01-26T15:32:28.577Z,49.13
2018-01-26T15:34:56.095Z,58.33
2018-01-26T15:37:23.627Z,64.03
2018-01-26T15:39:53.669Z,63.70
2018-01-26T15:42:21.241Z,53.50
2018-01-26T15:44:48.737Z,56.30
2018-01-26T15:47:16.245Z,60.23
2018-01-26T15:49:43.763Z,53.30
2018-01-26T15:52:11.349Z,57.80
2018-01-26T15:54:39.072Z,53.93
2018-01-26T15:57:06.579Z,60.50
2018-01-26T15:59:34.509Z,64.60
2018-01-26T16:02:02.356Z,57.33
2018-01-26T16:04:31.311Z,52.87
2018-01-26T16:06:58.862Z,64.50
2018-01-26T16:09:26.433Z,53.37
2018-01-26T16:11:53.962Z,58.90
2018-01-26T16:14:22.032Z,57.67
2018-01-26T16:16:50.677Z,59.37
2018-01-26T16:19:18.176Z,62.67
2018-01-26T16:21:45.693Z,57.27
2018-01-26T16:24:13.196Z,63.10
2018-01-26T16:26:40.751Z,57.53
2018-01-26T16:29:08.280Z,57.43
2018-01-26T16:31:35.896Z,55.33
2018-01-26T16:34:03.529Z,58.03
2018-01-26T16:36:32.052Z,59.10
2018-01-26T16:38:59.621Z,57.73
2018-01-26T16:41:27.256Z,61.43
2018-01-26T16:43:54.822Z,53.17
2018-01-26T16:46:22.347Z,55.00
2018-01-26T16:48:49.874Z,57.43
2018-01-26T16:51:17.469Z,51.10
2018-01-26T16:53:44.971Z,50.47
2018-01-26T16:56:12.514Z,53.33
2018-01-26T16:58:39.995Z,47.00
2018-01-26T17:01:07.503Z,55.43
2018-01-26T17:03:35.847Z,51.07
2018-01-26T17:06:03.386Z,53.40
2018-01-26T17:08:30.953Z,53.27
2018-01-26T17:10:58.416Z,54.63
2018-01-26T17:13:25.933Z,48.73
2018-01-26T17:15:53.487Z,54.83
2018-01-26T17:18:20.984Z,47.63
2018-01-26T17:20:48.494Z,56.73
2018-01-26T17:23:16.012Z,57.57
2018-01-26T17:25:44.380Z,60.43
2018-01-26T17:28:11.866Z,59.30
2018-01-26T17:30:39.359Z,45.77
2018-01-26T17:33:06.850Z,50.23
2018-01-26T17:35:34.426Z,53.77
2018-01-26T17:38:02.802Z,61.47
2018-01-26T17:40:30.288Z,54.93
2018-01-26T17:42:57.768Z,57.47
2018-01-26T17:45:25.262Z,58.97
2018-01-26T17:47:52.741Z,57.17
2018-01-26T17:50:20.251Z,50.53
2018-01-26T17:52:47.753Z,51.93
2018-01-26T17:55:15.277Z,52.37
2018-01-26T17:57:42.816Z,50.17
2018-01-26T18:00:10.319Z,58.87
2018-01-26T18:02:37.843Z,48.80
2018-01-26T18:05:05.360Z,51.17
2018-01-26T18:07:32.865Z,53.53
2018-01-26T18:10:00.354Z,50.57
2018-01-26T18:12:27.849Z,55.90
2018-01-26T18:14:55.344Z,55.50
2018-01-26T18:17:22.856Z,53.97
2018-01-26T18:19:50.346Z,49.37
2018-01-26T18:22:17.833Z,59.47
2018-01-26T18:24:45.361Z,58.33
2018-01-26T18:27:12.888Z,54.57
2018-01-26T18:29:40.482Z,60.50
2018-01-26T18:32:08.010Z,64.07
2018-01-26T18:34:35.541Z,54.10
2018-01-26T18:37:03.037Z,66.90
2018-01-26T18:39:30.572Z,58.13
2018-01-26T18:41:58.071Z,58.33
2018-01-26T18:44:25.652Z,67.30
2018-01-26T18:46:53.167Z,59.23
2018-01-26T18:49:20.746Z,59.40
2018-01-26T18:51:48.235Z,69.17
2018-01-26T18:54:15.738Z,65.23
2018-01-26T18:56:43.307Z,68.97
2018-01-26T18:59:10.831Z,75.27
2018-01-26T19:01:38.317Z,69.03
2018-01-26T19:04:05.847Z,64.47
2018-01-26T19:06:33.360Z,62.23
2018-01-26T19:09:00.882Z,57.97
2018-01-26T19:11:28.405Z,71.27
2018-01-26T19:13:57.819Z,66.20
2018-01-26T19:16:25.324Z,66.90
2018-01-26T19:18:52.821Z,71.20
2018-01-26T19:21:20.343Z,75.80
2018-01-26T19:23:47.948Z,67.17
2018-01-26T19:26:15.466Z,71.23
2018-01-26T19:28:43.011Z,63.77
2018-01-26T19:31:10.581Z,69.47
2018-01-26T19:33:38.150Z,74.03
2018-01-26T19:36:05.697Z,69.13
2018-01-26T19:38:33.206Z,81.10
2018-01-26T19:41:00.810Z,79.63
2018-01-26T19:43:28.325Z,79.97
2018-01-26T19:45:55.929Z,64.90
2018-01-26T19:48:23.415Z,78.07
2018-01-26T19:50:50.905Z,70.10
2018-01-26T19:53:18.411Z,68.63
2018-01-26T19:55:45.923Z,69.13
2018-01-26T19:58:13.629Z,72.60
2018-01-26T20:00:41.204Z,61.93
2018-01-26T20:03:20.447Z,65.50
2018-01-26T20:05:53.513Z,67.60
2018-01-26T20:08:30.440Z,65.60
2018-01-26T20:10:57.937Z,64.00
2018-01-26T20:13:28.236Z,64.93
2018-01-26T20:15:55.815Z,68.40
2018-01-26T20:18:23.341Z,70.00
2018-01-26T20:20:50.854Z,69.73
2018-01-26T20:23:18.354Z,75.27
2018-01-26T20:25:45.869Z,67.37
2018-01-26T20:28:13.388Z,65.90
2018-01-26T20:30:40.900Z,65.87
2018-01-26T20:33:08.426Z,71.77
2018-01-26T20:35:35.894Z,66.87
2018-01-26T20:38:03.404Z,66.93
2018-01-26T20:40:30.940Z,66.93
2018-01-26T20:42:58.476Z,74.77
2018-01-26T20:45:26.028Z,66.90
2018-01-26T20:47:53.552Z,79.00
2018-01-26T20:50:21.050Z,74.17
2018-01-26T20:52:48.603Z,69.07
2018-01-26T20:55:16.104Z,66.37
2018-01-26T20:57:43.896Z,83.60
2018-01-26T21:00:11.392Z,77.67
2018-01-26T21:02:38.897Z,79.40
2018-01-26T21:05:06.379Z,67.70
2018-01-26T21:07:35.582Z,65.23
2018-01-26T21:10:03.092Z,69.50
2018-01-26T21:12:30.585Z,67.60
2018-01-26T21:14:58.125Z,70.07
2018-01-26T21:17:25.614Z,67.77
2018-01-26T21:19:53.125Z,60.77
2018-01-26T21:22:20.665Z,71.70
2018-01-26T21:24:49.029Z,71.27
2018-01-26T21:27:16.533Z,65.03
2018-01-26T21:29:44.032Z,64.73
2018-01-26T21:32:11.539Z,66.73
2018-01-26T21:34:39.042Z,73.27
2018-01-26T21:37:06.517Z,57.93
2018-01-26T21:39:34.013Z,72.23
2018-01-26T21:42:01.611Z,68.13
2018-01-26T21:44:29.093Z,70.73
2018-01-26T21:46:56.591Z,74.00
2018-01-26T21:49:24.120Z,70.60
2018-01-26T21:51:51.644Z,68.27
2018-01-26T21:54:19.139Z,75.93
2018-01-26T21:56:46.650Z,72.37
2018-01-26T21:59:14.350Z,72.97
2018-01-26T22:01:41.847Z,82.73
2018-01-26T22:04:09.347Z,81.77
2018-01-26T22:06:42.332Z,80.40
2018-01-26T22:09:09.833Z,81.53
2018-01-26T22:11:37.309Z,81.50
2018-01-26T22:14:04.828Z,83.40
2018-01-26T22:16:32.365Z,81.63
2018-01-26T22:18:59.857Z,85.90
2018-01-26T22:21:27.408Z,87.03
2018-01-26T22:23:54.984Z,84.43
2018-01-26T22:26:22.522Z,77.77
2018-01-26T22:28:50.008Z,87.07
2018-01-26T22:31:17.564Z,86.33
2018-01-26T22:33:45.045Z,83.27
2018-01-26T22:36:12.560Z,77.70
2018-01-26T22:38:40.063Z,78.10
2018-01-26T22:44:02.474Z,85.80
2018-01-26T22:46:29.994Z,80.33
2018-01-26T22:48:57.520Z,68.53
2018-01-26T22:51:25.059Z,83.37
2018-01-26T22:53:52.555Z,75.13
2018-01-26T22:56:20.072Z,73.97
2018-01-26T22:58:47.595Z,75.93
2018-01-26T23:01:15.090Z,73.40
2018-01-26T23:03:42.570Z,74.03
2018-01-26T23:06:10.110Z,80.90
2018-01-26T23:08:37.650Z,72.33
2018-01-26T23:11:05.132Z,74.37
2018-01-26T23:13:32.689Z,76.63
2018-01-26T23:16:00.192Z,73.90
2018-01-26T23:18:27.734Z,81.33
2018-01-26T23:20:55.259Z,84.83
2018-01-26T23:23:22.778Z,84.53
2018-01-26T23:25:50.280Z,85.33
2018-01-26T23:28:17.763Z,78.53
2018-01-26T23:30:45.266Z,84.53
2018-01-26T23:33:12.761Z,83.93
2018-01-26T23:35:40.284Z,76.40
2018-01-26T23:38:07.778Z,85.47
2018-01-26T23:40:35.328Z,74.43
2018-01-26T23:43:02.898Z,71.67
2018-01-26T23:45:30.527Z,73.33
2018-01-26T23:47:58.040Z,87.03
2018-01-26T23:50:25.556Z,75.87
2018-01-26T23:52:53.072Z,84.73
2018-01-26T23:55:20.610Z,82.00
2018-01-26T23:57:48.147Z,85.93
